sensor_id;sensor_type;location;lat;lon;timestamp;P1;durP1;ratioP1;P2;durP2;ratioP2
55913;SDS011;58179;48.776;9.124;2024-02-21T00:00:56;18.15;;;5.45;;
55913;SDS011;58179;48.776;9.124;2024-02-21T00:03:22;16.35;;;5.40;;
55913;SDS011;58179;48.776;9.124;2024-02-21T00:05:48;13.40;;;4.87;;
55913;SDS011;58179;48.776;9.124;2024-02-21T00:08:16;16.38;;;5.57;;
55913;SDS011;58179;48.776;9.124;2024-02-21T00:10:43;18.50;;;5.95;;
55913;SDS011;58179;48.776;9.124;2024-02-21T00:13:09;19.65;;;5.22;;
55913;SDS011;58179;48.776;9.124;2024-02-21T00:15:35;16.95;;;5.60;;
55913;SDS011;58179;48.776;9.124;2024-02-21T00:18:02;22.48;;;6.20;;
55913;SDS011;58179;48.776;9.124;2024-02-21T00:20:28;12.43;;;5.15;;
55913;SDS011;58179;48.776;9.124;2024-02-21T00:22:55;18.02;;;5.53;;
55913;SDS011;58179;48.776;9.124;2024-02-21T00:25:23;15.63;;;5.60;;
55913;SDS011;58179;48.776;9.124;2024-02-21T00:27:49;14.25;;;5.47;;
55913;SDS011;58179;48.776;9.124;2024-02-21T00:30:15;14.55;;;4.85;;
55913;SDS011;58179;48.776;9.124;2024-02-21T00:32:41;15.88;;;5.38;;
55913;SDS011;58179;48.776;9.124;2024-02-21T00:35:08;18.30;;;6.00;;
55913;SDS011;58179;48.776;9.124;2024-02-21T00:37:34;14.18;;;5.03;;
55913;SDS011;58179;48.776;9.124;2024-02-21T00:40:00;13.80;;;5.10;;
55913;SDS011;58179;48.776;9.124;2024-02-21T00:42:27;14.38;;;5.55;;
55913;SDS011;58179;48.776;9.124;2024-02-21T00:44:54;14.02;;;4.70;;
55913;SDS011;58179;48.776;9.124;2024-02-21T00:47:20;13.40;;;5.30;;
55913;SDS011;58179;48.776;9.124;2024-02-21T00:49:46;18.95;;;5.13;;
55913;SDS011;58179;48.776;9.124;2024-02-21T00:52:12;12.45;;;4.38;;
55913;SDS011;58179;48.776;9.124;2024-02-21T00:54:38;26.00;;;5.93;;
55913;SDS011;58179;48.776;9.124;2024-02-21T00:57:04;16.02;;;5.35;;
55913;SDS011;58179;48.776;9.124;2024-02-21T00:59:32;22.55;;;5.75;;
55913;SDS011;58179;48.776;9.124;2024-02-21T01:01:58;17.02;;;5.53;;
55913;SDS011;58179;48.776;9.124;2024-02-21T01:04:25;18.67;;;4.85;;
55913;SDS011;58179;48.776;9.124;2024-02-21T01:06:51;18.73;;;5.65;;
55913;SDS011;58179;48.776;9.124;2024-02-21T01:09:17;14.87;;;4.97;;
55913;SDS011;58179;48.776;9.124;2024-02-21T01:11:43;20.88;;;5.43;;
55913;SDS011;58179;48.776;9.124;2024-02-21T01:14:09;14.27;;;5.40;;
55913;SDS011;58179;48.776;9.124;2024-02-21T01:16:37;22.13;;;5.88;;
55913;SDS011;58179;48.776;9.124;2024-02-21T01:19:04;12.60;;;4.70;;
55913;SDS011;58179;48.776;9.124;2024-02-21T01:21:30;16.40;;;5.40;;
55913;SDS011;58179;48.776;9.124;2024-02-21T01:23:56;16.83;;;5.70;;
55913;SDS011;58179;48.776;9.124;2024-02-21T01:26:22;17.93;;;5.23;;
55913;SDS011;58179;48.776;9.124;2024-02-21T01:28:48;14.73;;;5.20;;
55913;SDS011;58179;48.776;9.124;2024-02-21T01:31:14;20.58;;;5.05;;
55913;SDS011;58179;48.776;9.124;2024-02-21T01:33:42;12.15;;;4.03;;
55913;SDS011;58179;48.776;9.124;2024-02-21T01:36:08;16.33;;;4.45;;
55913;SDS011;58179;48.776;9.124;2024-02-21T01:38:34;14.70;;;4.93;;
55913;SDS011;58179;48.776;9.124;2024-02-21T01:41:00;15.23;;;4.80;;
55913;SDS011;58179;48.776;9.124;2024-02-21T01:43:27;15.48;;;5.13;;
55913;SDS011;58179;48.776;9.124;2024-02-21T01:45:53;10.43;;;4.50;;
55913;SDS011;58179;48.776;9.124;2024-02-21T01:48:21;17.90;;;5.63;;
55913;SDS011;58179;48.776;9.124;2024-02-21T01:50:50;17.80;;;4.88;;
55913;SDS011;58179;48.776;9.124;2024-02-21T01:53:18;16.73;;;4.75;;
55913;SDS011;58179;48.776;9.124;2024-02-21T01:55:46;16.52;;;4.35;;
55913;SDS011;58179;48.776;9.124;2024-02-21T01:58:12;15.75;;;4.45;;
55913;SDS011;58179;48.776;9.124;2024-02-21T02:00:40;15.48;;;4.68;;
55913;SDS011;58179;48.776;9.124;2024-02-21T02:03:07;13.10;;;4.32;;
55913;SDS011;58179;48.776;9.124;2024-02-21T02:05:35;11.82;;;4.20;;
55913;SDS011;58179;48.776;9.124;2024-02-21T02:08:03;15.00;;;4.28;;
55913;SDS011;58179;48.776;9.124;2024-02-21T02:10:29;10.65;;;3.67;;
55913;SDS011;58179;48.776;9.124;2024-02-21T02:12:55;10.95;;;3.83;;
55913;SDS011;58179;48.776;9.124;2024-02-21T02:15:22;8.70;;;3.72;;
55913;SDS011;58179;48.776;9.124;2024-02-21T02:17:48;10.98;;;4.10;;
55913;SDS011;58179;48.776;9.124;2024-02-21T02:20:14;9.25;;;3.63;;
55913;SDS011;58179;48.776;9.124;2024-02-21T02:22:41;12.25;;;4.28;;
55913;SDS011;58179;48.776;9.124;2024-02-21T02:25:13;16.58;;;4.38;;
55913;SDS011;58179;48.776;9.124;2024-02-21T02:27:42;16.10;;;4.32;;
55913;SDS011;58179;48.776;9.124;2024-02-21T02:30:10;16.40;;;4.10;;
55913;SDS011;58179;48.776;9.124;2024-02-21T02:32:36;11.10;;;3.78;;
55913;SDS011;58179;48.776;9.124;2024-02-21T02:35:03;11.35;;;4.25;;
55913;SDS011;58179;48.776;9.124;2024-02-21T02:37:29;15.50;;;4.40;;
55913;SDS011;58179;48.776;9.124;2024-02-21T02:39:55;11.52;;;4.40;;
55913;SDS011;58179;48.776;9.124;2024-02-21T02:42:23;10.02;;;3.95;;
55913;SDS011;58179;48.776;9.124;2024-02-21T02:44:49;14.70;;;4.13;;
55913;SDS011;58179;48.776;9.124;2024-02-21T02:47:15;17.35;;;4.28;;
55913;SDS011;58179;48.776;9.124;2024-02-21T02:49:41;11.15;;;3.30;;
55913;SDS011;58179;48.776;9.124;2024-02-21T02:52:08;15.77;;;4.05;;
55913;SDS011;58179;48.776;9.124;2024-02-21T02:54:35;15.37;;;4.27;;
55913;SDS011;58179;48.776;9.124;2024-02-21T02:57:01;15.23;;;4.10;;
55913;SDS011;58179;48.776;9.124;2024-02-21T02:59:29;18.27;;;4.82;;
55913;SDS011;58179;48.776;9.124;2024-02-21T03:01:56;20.27;;;4.93;;
55913;SDS011;58179;48.776;9.124;2024-02-21T03:04:22;15.73;;;4.40;;
55913;SDS011;58179;48.776;9.124;2024-02-21T03:06:48;15.02;;;4.18;;
55913;SDS011;58179;48.776;9.124;2024-02-21T03:09:14;10.80;;;4.50;;
55913;SDS011;58179;48.776;9.124;2024-02-21T03:11:40;19.02;;;5.15;;
55913;SDS011;58179;48.776;9.124;2024-02-21T03:14:08;10.43;;;4.30;;
55913;SDS011;58179;48.776;9.124;2024-02-21T03:16:35;12.73;;;4.10;;
55913;SDS011;58179;48.776;9.124;2024-02-21T03:19:01;14.48;;;4.63;;
55913;SDS011;58179;48.776;9.124;2024-02-21T03:21:28;14.15;;;5.05;;
55913;SDS011;58179;48.776;9.124;2024-02-21T03:23:54;12.70;;;4.53;;
55913;SDS011;58179;48.776;9.124;2024-02-21T03:26:20;19.17;;;5.13;;
55913;SDS011;58179;48.776;9.124;2024-02-21T03:28:46;20.45;;;5.53;;
55913;SDS011;58179;48.776;9.124;2024-02-21T03:31:13;23.48;;;5.72;;
55913;SDS011;58179;48.776;9.124;2024-02-21T03:33:42;23.65;;;5.68;;
55913;SDS011;58179;48.776;9.124;2024-02-21T03:36:12;20.77;;;6.05;;
55913;SDS011;58179;48.776;9.124;2024-02-21T03:38:39;17.10;;;5.53;;
55913;SDS011;58179;48.776;9.124;2024-02-21T03:41:05;20.73;;;5.55;;
55913;SDS011;58179;48.776;9.124;2024-02-21T03:43:31;14.93;;;5.13;;
55913;SDS011;58179;48.776;9.124;2024-02-21T03:45:57;12.48;;;4.65;;
55913;SDS011;58179;48.776;9.124;2024-02-21T03:48:24;13.45;;;4.78;;
55913;SDS011;58179;48.776;9.124;2024-02-21T03:50:51;16.00;;;5.33;;
55913;SDS011;58179;48.776;9.124;2024-02-21T03:53:17;16.67;;;5.43;;
55913;SDS011;58179;48.776;9.124;2024-02-21T03:55:43;13.23;;;5.22;;
55913;SDS011;58179;48.776;9.124;2024-02-21T03:58:09;17.85;;;5.38;;
55913;SDS011;58179;48.776;9.124;2024-02-21T04:00:35;17.45;;;5.28;;
55913;SDS011;58179;48.776;9.124;2024-02-21T04:03:02;22.77;;;6.43;;
55913;SDS011;58179;48.776;9.124;2024-02-21T04:05:28;17.45;;;5.60;;
55913;SDS011;58179;48.776;9.124;2024-02-21T04:07:56;20.77;;;6.00;;
55913;SDS011;58179;48.776;9.124;2024-02-21T04:10:22;31.27;;;6.40;;
55913;SDS011;58179;48.776;9.124;2024-02-21T04:12:48;21.20;;;5.45;;
55913;SDS011;58179;48.776;9.124;2024-02-21T04:15:15;15.10;;;5.38;;
55913;SDS011;58179;48.776;9.124;2024-02-21T04:17:41;20.17;;;5.88;;
55913;SDS011;58179;48.776;9.124;2024-02-21T04:20:13;18.75;;;5.03;;
55913;SDS011;58179;48.776;9.124;2024-02-21T04:22:40;18.65;;;5.68;;
55913;SDS011;58179;48.776;9.124;2024-02-21T04:25:09;21.15;;;5.93;;
55913;SDS011;58179;48.776;9.124;2024-02-21T04:27:36;13.73;;;5.25;;
55913;SDS011;58179;48.776;9.124;2024-02-21T04:30:02;19.67;;;6.03;;
55913;SDS011;58179;48.776;9.124;2024-02-21T04:32:29;17.85;;;5.75;;
55913;SDS011;58179;48.776;9.124;2024-02-21T04:34:56;13.85;;;5.07;;
55913;SDS011;58179;48.776;9.124;2024-02-21T04:37:22;13.80;;;5.60;;
55913;SDS011;58179;48.776;9.124;2024-02-21T04:39:48;18.00;;;5.60;;
55913;SDS011;58179;48.776;9.124;2024-02-21T04:42:16;15.85;;;5.38;;
55913;SDS011;58179;48.776;9.124;2024-02-21T04:44:42;17.92;;;5.40;;
55913;SDS011;58179;48.776;9.124;2024-02-21T04:47:09;14.13;;;5.35;;
55913;SDS011;58179;48.776;9.124;2024-02-21T04:49:35;16.85;;;5.18;;
55913;SDS011;58179;48.776;9.124;2024-02-21T04:52:01;14.95;;;5.88;;
55913;SDS011;58179;48.776;9.124;2024-02-21T04:54:27;23.00;;;6.93;;
55913;SDS011;58179;48.776;9.124;2024-02-21T04:56:53;20.92;;;6.25;;
55913;SDS011;58179;48.776;9.124;2024-02-21T04:59:21;27.88;;;6.07;;
55913;SDS011;58179;48.776;9.124;2024-02-21T05:01:47;23.50;;;6.50;;
55913;SDS011;58179;48.776;9.124;2024-02-21T05:04:13;19.30;;;5.50;;
55913;SDS011;58179;48.776;9.124;2024-02-21T05:06:39;22.15;;;6.28;;
55913;SDS011;58179;48.776;9.124;2024-02-21T05:09:06;22.67;;;5.75;;
55913;SDS011;58179;48.776;9.124;2024-02-21T05:11:34;23.70;;;6.45;;
55913;SDS011;58179;48.776;9.124;2024-02-21T05:14:00;20.13;;;6.10;;
55913;SDS011;58179;48.776;9.124;2024-02-21T05:16:28;16.48;;;5.47;;
55913;SDS011;58179;48.776;9.124;2024-02-21T05:18:54;17.25;;;5.93;;
55913;SDS011;58179;48.776;9.124;2024-02-21T05:21:21;19.90;;;6.40;;
55913;SDS011;58179;48.776;9.124;2024-02-21T05:23:48;21.00;;;6.20;;
55913;SDS011;58179;48.776;9.124;2024-02-21T05:26:19;18.85;;;6.22;;
55913;SDS011;58179;48.776;9.124;2024-02-21T05:28:46;18.70;;;6.57;;
55913;SDS011;58179;48.776;9.124;2024-02-21T05:31:13;19.58;;;6.38;;
55913;SDS011;58179;48.776;9.124;2024-02-21T05:33:40;15.68;;;6.25;;
55913;SDS011;58179;48.776;9.124;2024-02-21T05:36:07;20.67;;;6.05;;
55913;SDS011;58179;48.776;9.124;2024-02-21T05:38:33;16.05;;;6.30;;
55913;SDS011;58179;48.776;9.124;2024-02-21T05:41:00;21.95;;;6.50;;
55913;SDS011;58179;48.776;9.124;2024-02-21T05:43:26;18.08;;;6.13;;
55913;SDS011;58179;48.776;9.124;2024-02-21T05:45:52;17.13;;;5.80;;
55913;SDS011;58179;48.776;9.124;2024-02-21T05:48:19;18.45;;;5.65;;
55913;SDS011;58179;48.776;9.124;2024-02-21T05:50:47;20.10;;;5.88;;
55913;SDS011;58179;48.776;9.124;2024-02-21T05:53:13;19.17;;;5.82;;
55913;SDS011;58179;48.776;9.124;2024-02-21T05:55:40;13.88;;;5.15;;
55913;SDS011;58179;48.776;9.124;2024-02-21T05:58:06;10.77;;;4.80;;
55913;SDS011;58179;48.776;9.124;2024-02-21T06:00:35;15.38;;;5.55;;
55913;SDS011;58179;48.776;9.124;2024-02-21T06:03:01;12.77;;;5.07;;
55913;SDS011;58179;48.776;9.124;2024-02-21T06:05:28;15.63;;;5.00;;
55913;SDS011;58179;48.776;9.124;2024-02-21T06:07:55;14.73;;;5.13;;
55913;SDS011;58179;48.776;9.124;2024-02-21T06:10:21;15.90;;;5.07;;
55913;SDS011;58179;48.776;9.124;2024-02-21T06:12:48;11.68;;;5.07;;
55913;SDS011;58179;48.776;9.124;2024-02-21T06:15:14;9.88;;;4.88;;
55913;SDS011;58179;48.776;9.124;2024-02-21T06:17:40;15.17;;;5.10;;
55913;SDS011;58179;48.776;9.124;2024-02-21T06:20:07;12.40;;;5.47;;
55913;SDS011;58179;48.776;9.124;2024-02-21T06:22:33;14.80;;;4.82;;
55913;SDS011;58179;48.776;9.124;2024-02-21T06:25:01;13.77;;;5.22;;
55913;SDS011;58179;48.776;9.124;2024-02-21T06:27:27;11.70;;;4.93;;
55913;SDS011;58179;48.776;9.124;2024-02-21T06:29:53;14.93;;;4.68;;
55913;SDS011;58179;48.776;9.124;2024-02-21T06:32:19;17.07;;;5.27;;
55913;SDS011;58179;48.776;9.124;2024-02-21T06:34:46;14.40;;;5.22;;
55913;SDS011;58179;48.776;9.124;2024-02-21T06:37:12;18.58;;;5.80;;
55913;SDS011;58179;48.776;9.124;2024-02-21T06:39:38;21.02;;;5.72;;
55913;SDS011;58179;48.776;9.124;2024-02-21T06:42:07;10.35;;;4.93;;
55913;SDS011;58179;48.776;9.124;2024-02-21T06:44:33;20.07;;;5.80;;
55913;SDS011;58179;48.776;9.124;2024-02-21T06:47:05;15.43;;;5.60;;
55913;SDS011;58179;48.776;9.124;2024-02-21T06:49:32;15.52;;;5.13;;
55913;SDS011;58179;48.776;9.124;2024-02-21T06:51:58;14.95;;;5.40;;
55913;SDS011;58179;48.776;9.124;2024-02-21T06:54:24;18.42;;;5.63;;
55913;SDS011;58179;48.776;9.124;2024-02-21T06:56:50;12.88;;;5.05;;
55913;SDS011;58179;48.776;9.124;2024-02-21T06:59:18;14.95;;;5.40;;
55913;SDS011;58179;48.776;9.124;2024-02-21T07:01:44;10.05;;;5.00;;
55913;SDS011;58179;48.776;9.124;2024-02-21T07:04:11;17.17;;;5.30;;
55913;SDS011;58179;48.776;9.124;2024-02-21T07:06:37;18.70;;;5.72;;
55913;SDS011;58179;48.776;9.124;2024-02-21T07:09:03;16.52;;;5.20;;
55913;SDS011;58179;48.776;9.124;2024-02-21T07:11:29;12.65;;;5.15;;
55913;SDS011;58179;48.776;9.124;2024-02-21T07:13:55;17.20;;;4.95;;
55913;SDS011;58179;48.776;9.124;2024-02-21T07:16:23;16.77;;;5.20;;
55913;SDS011;58179;48.776;9.124;2024-02-21T07:18:49;17.13;;;5.20;;
55913;SDS011;58179;48.776;9.124;2024-02-21T07:21:15;13.00;;;4.45;;
55913;SDS011;58179;48.776;9.124;2024-02-21T07:23:41;13.27;;;4.80;;
55913;SDS011;58179;48.776;9.124;2024-02-21T07:26:07;9.85;;;4.20;;
55913;SDS011;58179;48.776;9.124;2024-02-21T07:28:34;13.00;;;5.00;;
55913;SDS011;58179;48.776;9.124;2024-02-21T07:31:00;14.65;;;4.25;;
55913;SDS011;58179;48.776;9.124;2024-02-21T07:33:27;11.77;;;4.25;;
55913;SDS011;58179;48.776;9.124;2024-02-21T07:35:55;12.40;;;4.60;;
55913;SDS011;58179;48.776;9.124;2024-02-21T07:38:21;14.48;;;4.35;;
55913;SDS011;58179;48.776;9.124;2024-02-21T07:40:47;17.55;;;4.03;;
55913;SDS011;58179;48.776;9.124;2024-02-21T07:43:14;13.65;;;5.50;;
55913;SDS011;58179;48.776;9.124;2024-02-21T07:45:40;15.35;;;4.60;;
55913;SDS011;58179;48.776;9.124;2024-02-21T07:48:06;14.90;;;3.95;;
55913;SDS011;58179;48.776;9.124;2024-02-21T07:50:34;14.73;;;4.00;;
55913;SDS011;58179;48.776;9.124;2024-02-21T07:53:00;11.07;;;3.42;;
55913;SDS011;58179;48.776;9.124;2024-02-21T07:55:26;5.72;;;2.67;;
55913;SDS011;58179;48.776;9.124;2024-02-21T07:57:52;9.68;;;3.75;;
55913;SDS011;58179;48.776;9.124;2024-02-21T08:00:19;10.27;;;3.15;;
55913;SDS011;58179;48.776;9.124;2024-02-21T08:02:46;11.98;;;3.80;;
55913;SDS011;58179;48.776;9.124;2024-02-21T08:05:13;21.27;;;4.43;;
55913;SDS011;58179;48.776;9.124;2024-02-21T08:07:40;9.90;;;3.28;;
55913;SDS011;58179;48.776;9.124;2024-02-21T08:10:07;10.77;;;3.90;;
55913;SDS011;58179;48.776;9.124;2024-02-21T08:12:33;13.23;;;3.92;;
55913;SDS011;58179;48.776;9.124;2024-02-21T08:15:00;11.57;;;3.35;;
55913;SDS011;58179;48.776;9.124;2024-02-21T08:17:28;5.53;;;2.58;;
55913;SDS011;58179;48.776;9.124;2024-02-21T08:19:54;4.00;;;2.42;;
55913;SDS011;58179;48.776;9.124;2024-02-21T08:22:20;5.65;;;2.33;;
55913;SDS011;58179;48.776;9.124;2024-02-21T08:24:48;5.13;;;2.15;;
55913;SDS011;58179;48.776;9.124;2024-02-21T08:27:14;9.50;;;3.33;;
55913;SDS011;58179;48.776;9.124;2024-02-21T08:29:40;9.18;;;3.17;;
55913;SDS011;58179;48.776;9.124;2024-02-21T08:32:06;5.65;;;2.63;;
55913;SDS011;58179;48.776;9.124;2024-02-21T08:34:32;14.57;;;3.08;;
55913;SDS011;58179;48.776;9.124;2024-02-21T08:36:59;12.98;;;3.53;;
55913;SDS011;58179;48.776;9.124;2024-02-21T08:39:25;8.70;;;2.80;;
55913;SDS011;58179;48.776;9.124;2024-02-21T08:41:54;11.13;;;3.30;;
55913;SDS011;58179;48.776;9.124;2024-02-21T08:44:22;11.73;;;3.03;;
55913;SDS011;58179;48.776;9.124;2024-02-21T08:46:51;13.30;;;3.53;;
55913;SDS011;58179;48.776;9.124;2024-02-21T08:49:17;8.90;;;3.20;;
55913;SDS011;58179;48.776;9.124;2024-02-21T08:51:44;10.48;;;2.90;;
55913;SDS011;58179;48.776;9.124;2024-02-21T08:54:11;12.00;;;3.35;;
55913;SDS011;58179;48.776;9.124;2024-02-21T08:56:37;8.70;;;2.30;;
55913;SDS011;58179;48.776;9.124;2024-02-21T08:59:04;7.85;;;2.72;;
55913;SDS011;58179;48.776;9.124;2024-02-21T09:01:31;9.40;;;3.30;;
55913;SDS011;58179;48.776;9.124;2024-02-21T09:03:58;11.07;;;2.90;;
55913;SDS011;58179;48.776;9.124;2024-02-21T09:06:24;9.48;;;2.53;;
55913;SDS011;58179;48.776;9.124;2024-02-21T09:08:50;13.93;;;2.78;;
55913;SDS011;58179;48.776;9.124;2024-02-21T09:11:16;6.70;;;2.55;;
55913;SDS011;58179;48.776;9.124;2024-02-21T09:13:43;9.30;;;2.70;;
55913;SDS011;58179;48.776;9.124;2024-02-21T09:16:10;14.23;;;3.40;;
55913;SDS011;58179;48.776;9.124;2024-02-21T09:18:36;9.05;;;2.78;;
55913;SDS011;58179;48.776;9.124;2024-02-21T09:21:03;7.37;;;2.80;;
55913;SDS011;58179;48.776;9.124;2024-02-21T09:23:29;7.27;;;2.77;;
55913;SDS011;58179;48.776;9.124;2024-02-21T09:25:56;6.80;;;2.35;;
55913;SDS011;58179;48.776;9.124;2024-02-21T09:28:25;8.10;;;2.58;;
55913;SDS011;58179;48.776;9.124;2024-02-21T09:30:51;7.70;;;2.88;;
55913;SDS011;58179;48.776;9.124;2024-02-21T09:33:18;9.77;;;2.60;;
55913;SDS011;58179;48.776;9.124;2024-02-21T09:35:44;9.70;;;2.95;;
55913;SDS011;58179;48.776;9.124;2024-02-21T09:38:12;12.32;;;2.47;;
55913;SDS011;58179;48.776;9.124;2024-02-21T09:40:38;8.77;;;2.72;;
55913;SDS011;58179;48.776;9.124;2024-02-21T09:43:07;8.27;;;2.80;;
55913;SDS011;58179;48.776;9.124;2024-02-21T09:45:33;11.57;;;3.33;;
55913;SDS011;58179;48.776;9.124;2024-02-21T09:48:10;5.53;;;1.90;;
55913;SDS011;58179;48.776;9.124;2024-02-21T09:50:46;6.65;;;2.25;;
55913;SDS011;58179;48.776;9.124;2024-02-21T09:53:14;11.00;;;2.67;;
55913;SDS011;58179;48.776;9.124;2024-02-21T09:55:40;8.43;;;2.40;;
55913;SDS011;58179;48.776;9.124;2024-02-21T09:58:08;11.20;;;2.50;;
55913;SDS011;58179;48.776;9.124;2024-02-21T10:00:35;8.98;;;2.30;;
55913;SDS011;58179;48.776;9.124;2024-02-21T10:03:01;8.68;;;2.20;;
55913;SDS011;58179;48.776;9.124;2024-02-21T10:05:34;10.90;;;2.88;;
55913;SDS011;58179;48.776;9.124;2024-02-21T10:08:02;10.17;;;2.47;;
55913;SDS011;58179;48.776;9.124;2024-02-21T10:10:29;8.23;;;2.47;;
55913;SDS011;58179;48.776;9.124;2024-02-21T10:13:05;9.27;;;2.10;;
55913;SDS011;58179;48.776;9.124;2024-02-21T10:15:31;10.13;;;2.60;;
55913;SDS011;58179;48.776;9.124;2024-02-21T10:17:58;4.40;;;1.70;;
55913;SDS011;58179;48.776;9.124;2024-02-21T10:20:25;9.20;;;2.20;;
55913;SDS011;58179;48.776;9.124;2024-02-21T10:23:00;8.27;;;2.33;;
55913;SDS011;58179;48.776;9.124;2024-02-21T10:25:28;6.27;;;2.03;;
55913;SDS011;58179;48.776;9.124;2024-02-21T10:27:55;11.27;;;2.33;;
55913;SDS011;58179;48.776;9.124;2024-02-21T10:30:22;8.45;;;2.25;;
55913;SDS011;58179;48.776;9.124;2024-02-21T10:32:48;9.25;;;2.55;;
55913;SDS011;58179;48.776;9.124;2024-02-21T10:35:24;8.10;;;2.10;;
55913;SDS011;58179;48.776;9.124;2024-02-21T10:37:52;9.75;;;2.53;;
55913;SDS011;58179;48.776;9.124;2024-02-21T10:40:22;10.00;;;2.47;;
55913;SDS011;58179;48.776;9.124;2024-02-21T10:42:53;6.05;;;2.10;;
55913;SDS011;58179;48.776;9.124;2024-02-21T10:45:24;6.97;;;2.40;;
55913;SDS011;58179;48.776;9.124;2024-02-21T10:47:56;10.52;;;2.42;;
55913;SDS011;58179;48.776;9.124;2024-02-21T10:50:33;9.20;;;2.35;;
55913;SDS011;58179;48.776;9.124;2024-02-21T10:53:09;6.82;;;2.03;;
55913;SDS011;58179;48.776;9.124;2024-02-21T10:55:53;8.68;;;2.28;;
55913;SDS011;58179;48.776;9.124;2024-02-21T10:58:26;6.78;;;2.08;;
55913;SDS011;58179;48.776;9.124;2024-02-21T11:00:55;8.87;;;2.60;;
55913;SDS011;58179;48.776;9.124;2024-02-21T11:03:21;11.40;;;2.40;;
55913;SDS011;58179;48.776;9.124;2024-02-21T11:05:48;9.75;;;2.22;;
55913;SDS011;58179;48.776;9.124;2024-02-21T11:08:15;8.55;;;2.25;;
55913;SDS011;58179;48.776;9.124;2024-02-21T11:10:45;7.63;;;2.28;;
55913;SDS011;58179;48.776;9.124;2024-02-21T11:13:13;5.30;;;1.98;;
55913;SDS011;58179;48.776;9.124;2024-02-21T11:15:39;9.98;;;2.70;;
55913;SDS011;58179;48.776;9.124;2024-02-21T11:18:05;5.25;;;2.00;;
55913;SDS011;58179;48.776;9.124;2024-02-21T11:20:32;7.43;;;2.00;;
55913;SDS011;58179;48.776;9.124;2024-02-21T11:22:59;6.22;;;1.75;;
55913;SDS011;58179;48.776;9.124;2024-02-21T11:25:26;6.80;;;1.83;;
55913;SDS011;58179;48.776;9.124;2024-02-21T11:27:58;6.75;;;1.80;;
55913;SDS011;58179;48.776;9.124;2024-02-21T11:30:27;4.90;;;1.70;;
55913;SDS011;58179;48.776;9.124;2024-02-21T11:32:59;9.00;;;2.10;;
55913;SDS011;58179;48.776;9.124;2024-02-21T11:35:26;5.45;;;1.75;;
55913;SDS011;58179;48.776;9.124;2024-02-21T11:38:07;7.32;;;1.75;;
55913;SDS011;58179;48.776;9.124;2024-02-21T11:40:34;8.05;;;2.45;;
55913;SDS011;58179;48.776;9.124;2024-02-21T11:43:00;4.80;;;1.70;;
55913;SDS011;58179;48.776;9.124;2024-02-21T11:45:28;6.63;;;1.90;;
55913;SDS011;58179;48.776;9.124;2024-02-21T11:47:54;8.80;;;2.20;;
55913;SDS011;58179;48.776;9.124;2024-02-21T11:50:21;7.53;;;2.03;;
55913;SDS011;58179;48.776;9.124;2024-02-21T11:52:49;4.97;;;1.75;;
55913;SDS011;58179;48.776;9.124;2024-02-21T11:55:15;4.07;;;1.70;;
55913;SDS011;58179;48.776;9.124;2024-02-21T11:57:41;6.15;;;1.92;;
55913;SDS011;58179;48.776;9.124;2024-02-21T12:00:12;5.50;;;1.75;;
55913;SDS011;58179;48.776;9.124;2024-02-21T12:02:41;6.57;;;1.90;;
55913;SDS011;58179;48.776;9.124;2024-02-21T12:05:07;4.00;;;1.70;;
55913;SDS011;58179;48.776;9.124;2024-02-21T12:07:35;4.13;;;1.73;;
55913;SDS011;58179;48.776;9.124;2024-02-21T12:10:06;3.75;;;1.42;;
55913;SDS011;58179;48.776;9.124;2024-02-21T12:12:35;5.15;;;1.60;;
55913;SDS011;58179;48.776;9.124;2024-02-21T12:15:02;6.45;;;2.00;;
55913;SDS011;58179;48.776;9.124;2024-02-21T12:17:30;4.78;;;1.75;;
55913;SDS011;58179;48.776;9.124;2024-02-21T12:19:58;4.40;;;1.60;;
55913;SDS011;58179;48.776;9.124;2024-02-21T12:22:25;4.80;;;1.70;;
55913;SDS011;58179;48.776;9.124;2024-02-21T12:24:52;3.73;;;1.57;;
55913;SDS011;58179;48.776;9.124;2024-02-21T12:27:18;5.70;;;1.92;;
55913;SDS011;58179;48.776;9.124;2024-02-21T12:29:44;5.63;;;1.88;;
55913;SDS011;58179;48.776;9.124;2024-02-21T12:32:11;5.35;;;1.88;;
55913;SDS011;58179;48.776;9.124;2024-02-21T12:34:37;4.90;;;1.60;;
55913;SDS011;58179;48.776;9.124;2024-02-21T12:37:05;4.00;;;1.42;;
55913;SDS011;58179;48.776;9.124;2024-02-21T12:39:31;4.80;;;1.80;;
55913;SDS011;58179;48.776;9.124;2024-02-21T12:41:57;4.25;;;1.40;;
55913;SDS011;58179;48.776;9.124;2024-02-21T12:44:23;4.88;;;1.80;;
55913;SDS011;58179;48.776;9.124;2024-02-21T12:46:49;5.78;;;1.77;;
55913;SDS011;58179;48.776;9.124;2024-02-21T12:49:18;5.20;;;1.73;;
55913;SDS011;58179;48.776;9.124;2024-02-21T12:51:45;5.05;;;1.85;;
55913;SDS011;58179;48.776;9.124;2024-02-21T12:54:15;7.47;;;1.50;;
55913;SDS011;58179;48.776;9.124;2024-02-21T12:56:41;3.50;;;1.60;;
55913;SDS011;58179;48.776;9.124;2024-02-21T12:59:07;6.22;;;1.88;;
55913;SDS011;58179;48.776;9.124;2024-02-21T13:01:36;8.77;;;1.80;;
55913;SDS011;58179;48.776;9.124;2024-02-21T13:04:02;4.57;;;1.52;;
55913;SDS011;58179;48.776;9.124;2024-02-21T13:06:29;2.15;;;1.50;;
55913;SDS011;58179;48.776;9.124;2024-02-21T13:08:55;4.68;;;1.92;;
55913;SDS011;58179;48.776;9.124;2024-02-21T13:11:22;5.78;;;1.70;;
55913;SDS011;58179;48.776;9.124;2024-02-21T13:13:51;3.60;;;1.50;;
55913;SDS011;58179;48.776;9.124;2024-02-21T13:16:18;2.60;;;1.52;;
55913;SDS011;58179;48.776;9.124;2024-02-21T13:18:44;7.72;;;1.88;;
55913;SDS011;58179;48.776;9.124;2024-02-21T13:21:12;5.97;;;1.73;;
55913;SDS011;58179;48.776;9.124;2024-02-21T13:23:39;3.97;;;2.10;;
55913;SDS011;58179;48.776;9.124;2024-02-21T13:26:05;4.20;;;1.33;;
55913;SDS011;58179;48.776;9.124;2024-02-21T13:28:33;5.30;;;1.40;;
55913;SDS011;58179;48.776;9.124;2024-02-21T13:30:59;4.22;;;1.40;;
55913;SDS011;58179;48.776;9.124;2024-02-21T13:33:25;7.75;;;1.92;;
55913;SDS011;58179;48.776;9.124;2024-02-21T13:35:53;3.30;;;1.38;;
55913;SDS011;58179;48.776;9.124;2024-02-21T13:38:19;4.03;;;1.60;;
55913;SDS011;58179;48.776;9.124;2024-02-21T13:40:46;2.88;;;1.40;;
55913;SDS011;58179;48.776;9.124;2024-02-21T13:43:12;3.78;;;1.20;;
55913;SDS011;58179;48.776;9.124;2024-02-21T13:45:39;6.43;;;1.48;;
55913;SDS011;58179;48.776;9.124;2024-02-21T13:48:07;2.42;;;1.25;;
55913;SDS011;58179;48.776;9.124;2024-02-21T13:50:36;2.15;;;1.13;;
55913;SDS011;58179;48.776;9.124;2024-02-21T13:53:07;3.78;;;1.58;;
55913;SDS011;58179;48.776;9.124;2024-02-21T13:55:35;4.63;;;1.55;;
55913;SDS011;58179;48.776;9.124;2024-02-21T13:58:01;2.55;;;1.20;;
55913;SDS011;58179;48.776;9.124;2024-02-21T14:00:28;5.00;;;1.20;;
55913;SDS011;58179;48.776;9.124;2024-02-21T14:02:56;2.60;;;1.13;;
55913;SDS011;58179;48.776;9.124;2024-02-21T14:05:23;1.65;;;0.93;;
55913;SDS011;58179;48.776;9.124;2024-02-21T14:07:49;4.00;;;1.45;;
55913;SDS011;58179;48.776;9.124;2024-02-21T14:10:15;2.80;;;1.38;;
55913;SDS011;58179;48.776;9.124;2024-02-21T14:12:41;3.70;;;1.20;;
55913;SDS011;58179;48.776;9.124;2024-02-21T14:15:08;3.22;;;1.15;;
55913;SDS011;58179;48.776;9.124;2024-02-21T14:17:34;3.80;;;1.40;;
55913;SDS011;58179;48.776;9.124;2024-02-21T14:20:02;4.68;;;1.20;;
55913;SDS011;58179;48.776;9.124;2024-02-21T14:22:30;4.70;;;1.38;;
55913;SDS011;58179;48.776;9.124;2024-02-21T14:24:56;2.67;;;1.48;;
55913;SDS011;58179;48.776;9.124;2024-02-21T14:27:22;2.73;;;1.30;;
55913;SDS011;58179;48.776;9.124;2024-02-21T14:29:48;4.05;;;1.23;;
55913;SDS011;58179;48.776;9.124;2024-02-21T14:32:14;2.30;;;1.27;;
55913;SDS011;58179;48.776;9.124;2024-02-21T14:34:40;5.07;;;1.30;;
55913;SDS011;58179;48.776;9.124;2024-02-21T14:37:08;4.07;;;1.95;;
55913;SDS011;58179;48.776;9.124;2024-02-21T14:39:34;3.92;;;1.30;;